createdAt,value
2018-04-14T00:02:13.929Z,79.95
2018-04-14T00:04:43.077Z,80.71
2018-04-14T00:07:11.466Z,81.20
2018-04-14T00:09:39.862Z,82.08
2018-04-14T00:12:09.017Z,82.83
2018-04-14T00:14:38.158Z,82.86
2018-04-14T00:17:06.536Z,83.54
2018-04-14T00:19:34.945Z,83.54
2018-04-14T00:22:03.357Z,84.46
2018-04-14T00:24:32.541Z,84.39
2018-04-14T00:27:00.972Z,84.63
2018-04-14T00:29:29.452Z,84.87
2018-04-14T00:31:57.835Z,85.04
2018-04-14T00:34:26.223Z,85.37
2018-04-14T00:36:54.648Z,85.31
2018-04-14T00:39:23.021Z,85.64
2018-04-14T00:41:51.473Z,85.85
2018-04-14T00:44:19.905Z,86.07
2018-04-14T00:46:48.347Z,86.25
2018-04-14T00:49:16.734Z,86.67
2018-04-14T00:51:45.122Z,86.58
2018-04-14T00:54:13.521Z,87.03
2018-04-14T00:56:41.954Z,86.75
2018-04-14T00:59:10.331Z,87.07
2018-04-14T01:01:39.528Z,87.31
2018-04-14T01:04:07.918Z,87.32
2018-04-14T01:06:37.074Z,87.34
2018-04-14T01:09:06.225Z,86.91
2018-04-14T01:11:35.446Z,86.87
2018-04-14T01:14:03.885Z,86.78
2018-04-14T01:16:32.273Z,86.90
2018-04-14T01:19:00.670Z,87.25
2018-04-14T01:21:29.858Z,87.24
2018-04-14T01:23:58.270Z,87.69
2018-04-14T01:26:26.693Z,87.82
2018-04-14T01:28:55.070Z,88.07
2018-04-14T01:31:23.489Z,88.48
2018-04-14T01:33:53.514Z,88.58
2018-04-14T01:36:21.939Z,88.74
2018-04-14T01:38:50.347Z,89.06
2018-04-14T01:41:18.730Z,89.31
2018-04-14T01:43:47.132Z,89.44
2018-04-14T01:46:15.530Z,89.84
2018-04-14T01:48:43.937Z,89.62
2018-04-14T01:51:12.319Z,89.81
2018-04-14T01:53:41.482Z,89.93
2018-04-14T01:56:09.866Z,90.12
2018-04-14T01:58:38.316Z,90.44
2018-04-14T02:01:06.693Z,90.65
2018-04-14T02:03:35.071Z,90.66
2018-04-14T02:06:03.451Z,90.43
2018-04-14T02:08:31.844Z,90.60
2018-04-14T02:11:00.217Z,90.86
2018-04-14T02:13:28.709Z,91.14
2018-04-14T02:15:57.127Z,91.14
2018-04-14T02:18:25.577Z,91.43
2018-04-14T02:20:53.973Z,91.27
2018-04-14T02:23:22.339Z,91.49
2018-04-14T02:25:50.724Z,91.59
2018-04-14T02:28:19.133Z,91.29
2018-04-14T02:30:47.542Z,91.68
2018-04-14T02:33:15.946Z,91.51
2018-04-14T02:35:45.086Z,91.54
2018-04-14T02:38:13.482Z,91.00
2018-04-14T02:40:41.934Z,90.54
2018-04-14T02:43:10.343Z,90.16
2018-04-14T02:45:38.753Z,90.28
2018-04-14T02:48:07.174Z,90.26
2018-04-14T02:50:35.629Z,90.03
2018-04-14T02:53:04.786Z,89.49
2018-04-14T02:55:33.172Z,89.09
2018-04-14T02:58:01.565Z,87.42
2018-04-14T03:00:30.031Z,86.28
2018-04-14T03:02:58.417Z,85.79
2018-04-14T03:05:26.815Z,85.61
2018-04-14T03:07:55.322Z,85.85
2018-04-14T03:10:23.764Z,85.40
2018-04-14T03:12:52.124Z,85.11
2018-04-14T03:15:20.507Z,85.36
2018-04-14T03:17:49.709Z,85.76
2018-04-14T03:20:18.089Z,86.24
2018-04-14T03:22:46.504Z,86.32
2018-04-14T03:25:14.894Z,86.65
2018-04-14T03:27:43.285Z,87.03
2018-04-14T03:30:11.671Z,86.83
2018-04-14T03:32:40.047Z,86.79
2018-04-14T03:35:08.506Z,87.18
2018-04-14T03:37:36.905Z,87.54
2018-04-14T03:40:05.278Z,87.83
2018-04-14T03:42:33.709Z,88.16
2018-04-14T03:45:02.106Z,88.54
2018-04-14T03:47:31.266Z,88.85
2018-04-14T03:49:59.719Z,89.11
2018-04-14T03:52:28.104Z,89.83
2018-04-14T03:54:56.501Z,89.94
2018-04-14T03:57:24.896Z,90.08
2018-04-14T03:59:53.282Z,89.86
2018-04-14T04:02:21.663Z,89.78
2018-04-14T04:04:50.837Z,90.30
2018-04-14T04:07:19.212Z,90.19
2018-04-14T04:09:47.630Z,89.90
2018-04-14T04:12:16.015Z,89.90
2018-04-14T04:14:44.392Z,89.70
2018-04-14T04:17:12.779Z,89.37
2018-04-14T04:19:58.836Z,88.14
2018-04-14T04:22:44.830Z,86.72
2018-04-14T04:28:20.788Z,86.09
2018-04-14T04:30:49.170Z,85.60
2018-04-14T04:33:17.569Z,85.35
2018-04-14T04:35:45.948Z,83.90
2018-04-14T04:38:14.337Z,84.57
2018-04-14T04:40:43.634Z,84.91
2018-04-14T04:43:12.020Z,84.96
2018-04-14T04:45:40.489Z,85.38
2018-04-14T04:48:08.895Z,85.59
2018-04-14T04:50:37.301Z,85.25
2018-04-14T04:53:05.701Z,84.90
2018-04-14T04:55:34.923Z,85.54
2018-04-14T04:58:03.313Z,85.00
2018-04-14T05:00:31.726Z,85.64
2018-04-14T05:03:00.933Z,85.89
2018-04-14T05:05:29.314Z,86.16
2018-04-14T05:07:57.691Z,85.37
2018-04-14T05:10:26.068Z,86.02
2018-04-14T05:12:54.457Z,86.61
2018-04-14T05:15:22.857Z,86.80
2018-04-14T05:17:51.247Z,87.03
2018-04-14T05:20:20.388Z,87.01
2018-04-14T05:22:48.777Z,87.37
2018-04-14T05:25:17.145Z,87.11
2018-04-14T05:27:46.285Z,86.92
2018-04-14T05:30:14.677Z,86.49
2018-04-14T05:32:43.066Z,86.61
2018-04-14T05:35:11.498Z,86.68
2018-04-14T05:37:39.877Z,86.57
2018-04-14T05:40:09.051Z,86.24
2018-04-14T05:42:37.428Z,86.22
2018-04-14T05:45:05.810Z,85.22
2018-04-14T05:47:34.208Z,84.38
2018-04-14T05:50:02.591Z,84.18
2018-04-14T05:52:31.003Z,81.39
2018-04-14T05:55:00.150Z,81.51
2018-04-14T05:57:28.545Z,80.20
2018-04-14T05:59:56.982Z,79.47
2018-04-14T06:02:25.422Z,79.05
2018-04-14T06:04:53.866Z,80.55
2018-04-14T06:07:22.315Z,78.33
2018-04-14T06:09:51.458Z,77.34
2018-04-14T06:12:19.858Z,76.31
2018-04-14T06:14:48.232Z,75.53
2018-04-14T06:17:16.618Z,73.39
2018-04-14T06:19:45.090Z,73.02
2018-04-14T06:22:13.544Z,72.45
2018-04-14T06:24:41.873Z,72.42
2018-04-14T06:27:10.263Z,70.74
2018-04-14T06:29:38.664Z,70.05
2018-04-14T06:32:07.113Z,66.25
2018-04-14T06:34:35.635Z,66.88
2018-04-14T06:37:04.021Z,66.54
2018-04-14T06:39:32.430Z,64.28
2018-04-14T06:42:01.578Z,63.24
2018-04-14T06:44:29.988Z,65.14
2018-04-14T06:46:58.414Z,64.78
2018-04-14T06:49:26.817Z,62.02
2018-04-14T06:51:55.357Z,57.05
2018-04-14T06:54:24.606Z,57.95
2018-04-14T06:56:53.067Z,57.64
2018-04-14T06:59:21.457Z,58.43
2018-04-14T07:01:49.846Z,52.83
2018-04-14T07:04:18.245Z,54.24
2018-04-14T07:06:46.637Z,53.55
2018-04-14T07:09:15.036Z,55.16
2018-04-14T07:11:43.449Z,57.72
2018-04-14T07:14:12.611Z,57.18
2018-04-14T07:16:41.021Z,53.13
2018-04-14T07:19:09.446Z,50.39
2018-04-14T07:21:37.866Z,51.40
2018-04-14T07:24:06.248Z,51.64
2018-04-14T07:26:34.654Z,51.08
2018-04-14T07:29:03.904Z,52.43
2018-04-14T07:31:32.346Z,52.62
2018-04-14T07:34:01.549Z,53.85
2018-04-14T07:36:30.741Z,55.44
2018-04-14T07:38:59.178Z,58.55
2018-04-14T07:41:27.601Z,55.45
2018-04-14T07:43:55.999Z,54.76
2018-04-14T07:46:25.170Z,52.87
2018-04-14T07:48:53.594Z,55.29
2018-04-14T07:51:22.763Z,52.56
2018-04-14T07:53:51.160Z,51.12
2018-04-14T07:56:19.579Z,54.18
2018-04-14T07:58:47.984Z,49.41
2018-04-14T08:01:16.665Z,47.88
2018-04-14T08:03:45.090Z,48.36
2018-04-14T08:06:14.291Z,48.58
2018-04-14T08:08:42.832Z,47.70
2018-04-14T08:11:11.219Z,53.46
2018-04-14T08:13:39.613Z,53.66
2018-04-14T08:16:08.048Z,48.79
2018-04-14T08:18:37.339Z,51.56
2018-04-14T08:21:05.823Z,47.23
2018-04-14T08:23:34.252Z,45.71
2018-04-14T08:26:02.633Z,46.05
2018-04-14T08:28:31.026Z,46.49
2018-04-14T08:30:59.520Z,51.82
2018-04-14T08:33:28.087Z,49.07
2018-04-14T08:35:56.513Z,54.05
2018-04-14T08:38:24.911Z,50.59
2018-04-14T08:40:53.365Z,47.27
2018-04-14T08:43:21.776Z,47.72
2018-04-14T08:45:50.177Z,47.53
2018-04-14T08:48:18.572Z,50.10
2018-04-14T08:50:47.746Z,45.67
2018-04-14T08:53:16.192Z,48.22
2018-04-14T08:55:44.577Z,44.88
2018-04-14T08:58:12.998Z,44.16
2018-04-14T09:00:41.409Z,44.47
2018-04-14T09:03:10.591Z,46.19
2018-04-14T09:05:38.990Z,46.55
2018-04-14T09:08:08.276Z,52.70
2018-04-14T09:10:36.701Z,56.49
2018-04-14T09:13:05.083Z,51.89
2018-04-14T09:15:33.546Z,49.37
2018-04-14T09:18:02.702Z,48.13
2018-04-14T09:20:31.149Z,46.74
2018-04-14T09:22:59.535Z,46.93
2018-04-14T09:25:28.037Z,47.58
2018-04-14T09:27:56.431Z,50.43
2018-04-14T09:30:24.845Z,46.25
2018-04-14T09:32:53.253Z,46.35
2018-04-14T09:35:22.428Z,44.54
2018-04-14T09:37:50.878Z,45.22
2018-04-14T09:40:19.293Z,50.67
2018-04-14T09:42:47.718Z,47.04
2018-04-14T09:45:16.098Z,50.69
2018-04-14T09:47:44.511Z,48.68
2018-04-14T09:50:12.938Z,49.65
2018-04-14T09:52:41.443Z,50.61
2018-04-14T09:55:10.649Z,47.90
2018-04-14T09:57:39.865Z,48.43
2018-04-14T10:00:08.302Z,45.00
2018-04-14T10:02:42.237Z,48.74
2018-04-14T10:05:11.519Z,47.29
2018-04-14T10:07:39.917Z,48.18
2018-04-14T10:10:09.088Z,51.86
2018-04-14T10:12:37.478Z,52.37
2018-04-14T10:15:05.914Z,52.06
2018-04-14T10:17:34.319Z,51.92
2018-04-14T10:20:02.691Z,51.21
2018-04-14T10:22:31.102Z,47.50
2018-04-14T10:24:59.545Z,46.63
2018-04-14T10:27:27.969Z,49.92
2018-04-14T10:29:56.385Z,48.53
2018-04-14T10:32:24.796Z,48.27
2018-04-14T10:34:53.169Z,50.24
2018-04-14T10:37:21.696Z,45.02
2018-04-14T10:39:50.138Z,45.43
2018-04-14T10:42:18.534Z,44.12
2018-04-14T10:44:46.913Z,45.45
2018-04-14T10:47:15.317Z,46.52
2018-04-14T10:49:43.728Z,44.16
2018-04-14T10:52:12.905Z,40.07
2018-04-14T10:54:41.322Z,40.63
2018-04-14T10:57:09.866Z,42.91
2018-04-14T10:59:38.268Z,46.26
2018-04-14T11:02:06.671Z,42.84
2018-04-14T11:04:35.073Z,41.25
2018-04-14T11:07:03.457Z,42.58
2018-04-14T11:09:32.663Z,42.09
2018-04-14T11:12:02.034Z,42.67
2018-04-14T11:14:31.261Z,41.95
2018-04-14T11:16:59.677Z,43.55
2018-04-14T11:19:28.101Z,43.08
2018-04-14T11:21:56.517Z,41.92
2018-04-14T11:24:24.899Z,42.67
2018-04-14T11:26:53.317Z,41.93
2018-04-14T11:29:21.707Z,41.07
2018-04-14T11:31:50.112Z,40.06
2018-04-14T11:34:18.522Z,41.44
2018-04-14T11:36:46.951Z,41.74
2018-04-14T11:39:15.342Z,44.97
2018-04-14T11:41:43.773Z,42.52
2018-04-14T11:44:12.159Z,48.60
2018-04-14T11:46:40.569Z,48.54
2018-04-14T11:49:09.755Z,46.51
2018-04-14T11:51:38.202Z,45.49
2018-04-14T11:54:06.634Z,44.00
2018-04-14T11:56:35.808Z,47.02
2018-04-14T11:59:04.208Z,45.29
2018-04-14T12:01:32.629Z,44.62
2018-04-14T12:04:01.015Z,45.71
2018-04-14T12:06:29.454Z,45.22
2018-04-14T12:08:57.838Z,44.57
2018-04-14T12:11:27.774Z,43.58
2018-04-14T12:13:56.925Z,45.42
2018-04-14T12:16:25.335Z,44.65
2018-04-14T12:18:53.729Z,44.67
2018-04-14T12:21:22.106Z,45.43
2018-04-14T12:23:50.501Z,43.61
2018-04-14T12:26:19.658Z,41.95
2018-04-14T12:28:48.103Z,45.73
2018-04-14T12:31:17.301Z,43.67
2018-04-14T12:33:46.456Z,43.45
2018-04-14T12:36:14.896Z,46.22
2018-04-14T12:38:43.290Z,46.58
2018-04-14T12:41:11.698Z,43.21
2018-04-14T12:43:40.078Z,43.57
2018-04-14T12:46:08.517Z,42.52
2018-04-14T12:48:37.670Z,43.03
2018-04-14T12:51:06.066Z,44.50
2018-04-14T12:53:34.467Z,45.65
2018-04-14T12:56:02.869Z,43.13
2018-04-14T12:58:32.024Z,44.57
2018-04-14T13:01:00.417Z,41.66
2018-04-14T13:03:28.838Z,43.57
2018-04-14T13:05:58.056Z,42.75
2018-04-14T13:08:26.462Z,42.97
2018-04-14T13:10:54.862Z,40.12
2018-04-14T13:13:23.418Z,39.30
2018-04-14T13:15:51.813Z,39.97
2018-04-14T13:18:20.213Z,40.75
2018-04-14T13:20:48.611Z,41.12
2018-04-14T13:23:17.006Z,45.30
2018-04-14T13:25:45.397Z,42.61
2018-04-14T13:28:14.567Z,42.46
2018-04-14T13:30:42.954Z,41.05
2018-04-14T13:33:11.399Z,39.53
2018-04-14T13:35:39.843Z,40.39
2018-04-14T13:38:08.238Z,42.07
2018-04-14T13:40:37.413Z,42.91
2018-04-14T13:43:05.933Z,41.97
2018-04-14T13:45:35.178Z,44.40
2018-04-14T13:48:03.625Z,43.01
2018-04-14T13:50:32.797Z,42.98
2018-04-14T13:53:01.211Z,44.51
2018-04-14T13:55:30.389Z,40.13
2018-04-14T13:57:59.572Z,39.63
2018-04-14T14:00:27.978Z,40.73
2018-04-14T14:02:57.117Z,43.66
2018-04-14T14:05:25.512Z,43.92
2018-04-14T14:07:53.945Z,45.63
2018-04-14T14:10:23.146Z,43.91
2018-04-14T14:12:52.322Z,44.75
2018-04-14T14:15:20.733Z,45.82
2018-04-14T14:17:49.285Z,47.29
2018-04-14T14:20:17.674Z,45.06
2018-04-14T14:22:46.074Z,45.55
2018-04-14T14:25:14.500Z,46.52
2018-04-14T14:27:42.942Z,46.87
2018-04-14T14:30:11.544Z,45.03
2018-04-14T14:32:40.729Z,46.92
2018-04-14T14:35:09.109Z,45.83
2018-04-14T14:37:37.506Z,48.10
2018-04-14T14:40:05.904Z,47.13
2018-04-14T14:42:35.326Z,45.82
2018-04-14T14:45:03.666Z,47.35
2018-04-14T14:47:38.422Z,47.48
2018-04-14T14:50:13.153Z,47.33
2018-04-14T14:52:42.364Z,48.60
2018-04-14T14:55:11.550Z,50.04
2018-04-14T14:57:40.008Z,48.06
2018-04-14T15:00:08.409Z,49.79
2018-04-14T15:05:03.176Z,49.41
2018-04-14T15:07:31.536Z,50.09
2018-04-14T15:10:00.730Z,48.67
2018-04-14T15:12:29.945Z,46.45
2018-04-14T15:14:58.437Z,44.68
2018-04-14T15:17:26.848Z,44.86
2018-04-14T15:19:55.224Z,41.67
2018-04-14T15:22:23.714Z,43.91
2018-04-14T15:24:52.107Z,44.70
2018-04-14T15:27:20.518Z,42.80
2018-04-14T15:29:48.903Z,42.34
2018-04-14T15:32:18.271Z,46.31
2018-04-14T15:34:46.675Z,47.43
2018-04-14T15:37:15.067Z,45.99
2018-04-14T15:39:44.348Z,44.63
2018-04-14T15:42:12.749Z,46.52
2018-04-14T15:44:41.334Z,45.66
2018-04-14T15:47:09.736Z,47.07
2018-04-14T15:49:38.955Z,44.74
2018-04-14T15:52:08.125Z,43.56
2018-04-14T15:54:36.526Z,45.95
2018-04-14T15:57:05.665Z,45.27
2018-04-14T15:59:34.126Z,47.35
2018-04-14T16:02:02.527Z,45.00
2018-04-14T16:04:30.913Z,44.93
2018-04-14T16:06:59.319Z,47.52
2018-04-14T16:09:27.708Z,47.95
2018-04-14T16:11:56.137Z,47.02
2018-04-14T16:14:25.294Z,48.96
2018-04-14T16:16:53.734Z,48.42
2018-04-14T16:19:22.186Z,48.97
2018-04-14T16:21:50.604Z,48.45
2018-04-14T16:24:18.998Z,49.48
2018-04-14T16:26:47.376Z,49.59
2018-04-14T16:29:15.857Z,50.82
2018-04-14T16:31:44.453Z,50.73
2018-04-14T16:34:12.834Z,50.64
2018-04-14T16:36:41.254Z,51.30
2018-04-14T16:39:09.667Z,51.07
2018-04-14T16:41:38.857Z,52.28
2018-04-14T16:44:07.241Z,51.17
2018-04-14T16:46:35.875Z,50.50
2018-04-14T16:49:04.256Z,51.03
2018-04-14T16:51:32.621Z,52.54
2018-04-14T16:54:01.786Z,53.24
2018-04-14T16:56:30.179Z,54.23
2018-04-14T16:58:58.553Z,52.76
2018-04-14T17:01:26.924Z,51.98
2018-04-14T17:03:55.323Z,53.03
2018-04-14T17:06:23.839Z,53.65
2018-04-14T17:08:52.994Z,54.38
2018-04-14T17:11:21.502Z,53.99
2018-04-14T17:13:51.398Z,53.88
2018-04-14T17:16:19.774Z,54.90
2018-04-14T17:18:48.227Z,54.42
2018-04-14T17:21:16.567Z,55.15
2018-04-14T17:23:44.974Z,55.04
2018-04-14T17:26:14.128Z,55.27
2018-04-14T17:28:42.491Z,55.91
2018-04-14T17:31:10.910Z,56.42
2018-04-14T17:33:39.562Z,56.83
2018-04-14T17:36:07.981Z,57.98
2018-04-14T17:38:36.370Z,57.03
2018-04-14T17:41:04.789Z,57.63
2018-04-14T17:43:33.945Z,57.08
2018-04-14T17:46:02.390Z,58.29
2018-04-14T17:48:30.774Z,57.69
2018-04-14T17:50:59.233Z,58.06
2018-04-14T17:53:28.438Z,58.96
2018-04-14T17:55:57.593Z,59.26
2018-04-14T17:58:25.974Z,59.43
2018-04-14T18:00:54.408Z,59.52
2018-04-14T18:03:23.555Z,60.03
2018-04-14T18:05:51.969Z,61.48
2018-04-14T18:08:20.378Z,61.09
2018-04-14T18:10:49.561Z,61.03
2018-04-14T18:13:18.801Z,62.00
2018-04-14T18:15:47.251Z,62.03
2018-04-14T18:18:16.422Z,61.43
2018-04-14T18:20:44.829Z,62.21
2018-04-14T18:23:13.259Z,63.05
2018-04-14T18:25:41.669Z,62.92
2018-04-14T18:28:10.070Z,63.10
2018-04-14T18:30:38.463Z,63.54
2018-04-14T18:33:06.907Z,63.00
2018-04-14T18:35:35.311Z,62.00
2018-04-14T18:38:03.726Z,62.60
2018-04-14T18:40:32.929Z,62.41
2018-04-14T18:43:02.095Z,62.84
2018-04-14T18:45:30.507Z,63.01
2018-04-14T18:47:59.687Z,63.79
2018-04-14T18:50:28.132Z,63.96
2018-04-14T18:52:56.522Z,64.63
2018-04-14T18:55:24.934Z,64.49
2018-04-14T18:57:53.333Z,65.35
2018-04-14T19:00:21.729Z,65.21
2018-04-14T19:02:50.916Z,65.24
2018-04-14T19:05:19.314Z,65.98
2018-04-14T19:07:48.453Z,66.08
2018-04-14T19:10:16.867Z,66.48
2018-04-14T19:12:45.273Z,66.87
2018-04-14T19:15:13.678Z,67.86
2018-04-14T19:17:42.839Z,67.26
2018-04-14T19:20:11.237Z,66.99
2018-04-14T19:22:39.633Z,67.21
2018-04-14T19:25:08.772Z,67.54
2018-04-14T19:27:38.105Z,68.77
2018-04-14T19:30:06.512Z,68.40
2018-04-14T19:32:35.689Z,68.92
2018-04-14T19:35:04.096Z,69.08
2018-04-14T19:37:33.999Z,68.70
2018-04-14T19:40:02.398Z,68.64
2018-04-14T19:42:32.298Z,69.43
2018-04-14T19:45:00.799Z,69.92
2018-04-14T19:47:30.011Z,70.72
2018-04-14T19:49:59.408Z,70.08
2018-04-14T19:52:29.121Z,70.80
2018-04-14T19:54:57.517Z,71.69
2018-04-14T19:57:27.471Z,72.23
2018-04-14T19:59:55.891Z,72.69
2018-04-14T20:02:24.283Z,73.39
2018-04-14T20:04:52.797Z,73.99
2018-04-14T20:07:21.199Z,74.60
2018-04-14T20:09:49.794Z,75.04
2018-04-14T20:12:18.264Z,75.83
2018-04-14T20:14:47.426Z,76.21
2018-04-14T20:17:16.630Z,76.66
2018-04-14T20:19:45.072Z,76.58
2018-04-14T20:22:13.422Z,77.04
2018-04-14T20:24:42.653Z,76.94
2018-04-14T20:27:11.107Z,76.92
2018-04-14T20:29:40.288Z,77.35
2018-04-14T20:32:08.728Z,77.94
2018-04-14T20:34:37.149Z,78.03
2018-04-14T20:37:06.627Z,78.06
2018-04-14T20:39:34.995Z,78.23
2018-04-14T20:42:04.122Z,78.19
2018-04-14T20:44:32.526Z,78.28
2018-04-14T20:47:00.967Z,78.14
2018-04-14T20:49:29.364Z,78.13
2018-04-14T20:51:57.758Z,78.33
2018-04-14T20:54:26.204Z,78.50
2018-04-14T20:56:54.627Z,78.34
2018-04-14T20:59:23.024Z,78.22
2018-04-14T21:01:52.218Z,78.19
2018-04-14T21:04:21.394Z,77.97
2018-04-14T21:06:49.830Z,77.64
2018-04-14T21:09:18.986Z,77.14
2018-04-14T21:11:48.289Z,77.01
2018-04-14T21:14:16.728Z,76.55
2018-04-14T21:16:45.981Z,76.46
2018-04-14T21:19:14.390Z,76.43
2018-04-14T21:21:42.835Z,76.32
2018-04-14T21:24:11.217Z,76.02
2018-04-14T21:26:39.618Z,74.35
2018-04-14T21:29:08.046Z,74.72
2018-04-14T21:31:37.230Z,74.60
2018-04-14T21:34:06.394Z,74.43
2018-04-14T21:36:34.801Z,74.52
2018-04-14T21:39:03.241Z,74.07
2018-04-14T21:41:31.708Z,74.05
2018-04-14T21:44:00.871Z,74.14
2018-04-14T21:46:29.306Z,73.63
2018-04-14T21:48:57.707Z,74.11
2018-04-14T21:51:26.111Z,74.30
2018-04-14T21:53:54.586Z,74.62
2018-04-14T21:56:23.790Z,74.78
2018-04-14T21:58:52.379Z,74.74
2018-04-14T22:01:20.836Z,74.70
2018-04-14T22:03:49.273Z,74.99
2018-04-14T22:06:17.674Z,75.18
2018-04-14T22:08:46.873Z,75.05
2018-04-14T22:11:16.013Z,75.38
2018-04-14T22:13:44.409Z,75.37
2018-04-14T22:16:13.013Z,75.85
2018-04-14T22:18:41.424Z,75.58
2018-04-14T22:21:10.589Z,75.55
2018-04-14T22:23:39.023Z,75.62
2018-04-14T22:26:08.185Z,75.88
2018-04-14T22:28:36.587Z,75.91
2018-04-14T22:31:04.988Z,74.23
2018-04-14T22:33:34.331Z,74.12
2018-04-14T22:36:02.710Z,73.78
2018-04-14T22:38:31.187Z,73.52
2018-04-14T22:40:59.642Z,73.08
2018-04-14T22:43:28.816Z,72.19
2018-04-14T22:45:57.220Z,71.23
2018-04-14T22:48:26.367Z,70.54
2018-04-14T22:50:54.761Z,70.24
2018-04-14T22:53:23.180Z,71.07
2018-04-14T22:55:52.357Z,70.68
2018-04-14T22:58:20.760Z,71.32
2018-04-14T23:00:50.670Z,71.22
2018-04-14T23:03:19.089Z,71.41
2018-04-14T23:05:48.320Z,70.58
2018-04-14T23:08:16.741Z,70.93
2018-04-14T23:10:45.137Z,70.85
2018-04-14T23:13:14.292Z,70.79
2018-04-14T23:15:42.699Z,71.02
2018-04-14T23:18:11.861Z,70.82
2018-04-14T23:20:40.241Z,71.84
2018-04-14T23:23:08.631Z,73.35
2018-04-14T23:25:37.012Z,73.66
2018-04-14T23:28:05.417Z,74.00
2018-04-14T23:30:34.609Z,74.77
2018-04-14T23:33:02.996Z,75.84
2018-04-14T23:35:31.395Z,77.15
2018-04-14T23:38:00.006Z,78.80
2018-04-14T23:40:28.399Z,78.25
2018-04-14T23:42:57.537Z,77.48
2018-04-14T23:45:25.942Z,77.67
2018-04-14T23:47:55.085Z,80.52
2018-04-14T23:50:24.270Z,82.13
2018-04-14T23:52:52.663Z,83.10
2018-04-14T23:55:21.814Z,83.67
2018-04-14T23:57:50.208Z,83.19
